Time;durP1;ratioP1;P1;durP2;ratioP2;P2;SDS_P1;SDS_P2;PMS_P1;PMS_P2;Temp;Humidity;BMP_temperature;BMP_pressure;BME280_temperature;BME280_humidity;BME280_pressure;Samples;Min_cycle;Max_cycle;Signal;HPM_P1;HPM_P2
2022/11/04 00:02:24;;;;;;;0.07;0.07;;;;;;;;;;5036335;28;20641;-76
2022/11/04 00:04:52;;;;;;;0.03;0.03;;;;;;;;;;5035672;28;20205;-76
2022/11/04 00:10:06;;;;;;;0.00;0.00;;;;;;;;;;5038628;28;20206;-76
2022/11/04 00:12:32;;;;;;;0.10;0.10;;;;;;;;;;5038398;28;20667;-77
2022/11/04 00:17:18;;;;;;;0.10;0.10;;;;;;;;;;5040581;28;20626;-76
2022/11/04 00:17:46;;;;;;;0.00;0.00;;;;;;;;;;5030641;28;20223;-77
2022/11/04 00:28:45;;;;;;;0.00;0.00;;;;;;;;;;5030758;28;20662;-76
2022/11/04 00:33:59;;;;;;;0.00;0.00;;;;;;;;;;5037657;28;20624;-75
2022/11/04 00:36:27;;;;;;;0.00;0.00;;;;;;;;;;5049066;28;20668;-75
2022/11/04 00:38:55;;;;;;;0.10;0.10;;;;;;;;;;5039668;28;20210;-74
2022/11/04 00:41:26;;;;;;;0.10;0.10;;;;;;;;;;5039198;28;20233;-74
2022/11/04 00:43:53;;;;;;;0.00;0.00;;;;;;;;;;5030018;28;20618;-71
2022/11/04 00:46:21;;;;;;;0.00;0.00;;;;;;;;;;5039792;28;21243;-71
2022/11/04 00:48:48;;;;;;;0.00;0.00;;;;;;;;;;5038527;28;20211;-71
2022/11/04 00:51:17;;;;;;;0.00;0.00;;;;;;;;;;5037859;28;20727;-72
2022/11/04 00:53:44;;;;;;;0.00;0.00;;;;;;;;;;5038976;28;20621;-73
2022/11/04 00:56:13;;;;;;;0.00;0.00;;;;;;;;;;5038055;28;20625;-74
2022/11/04 00:58:40;;;;;;;0.03;0.00;;;;;;;;;;5030241;28;20621;-75
2022/11/04 01:01:09;;;;;;;0.00;0.00;;;;;;;;;;5038474;28;20760;-76
2022/11/04 01:03:36;;;;;;;0.00;0.00;;;;;;;;;;5039652;28;20199;-77
2022/11/04 01:06:03;;;;;;;0.00;0.00;;;;;;;;;;5040533;28;20605;-76
2022/11/04 01:08:31;;;;;;;0.00;0.00;;;;;;;;;;5037756;28;20640;-76
2022/11/04 01:11:01;;;;;;;0.00;0.00;;;;;;;;;;5039486;28;20623;-76
2022/11/04 01:13:30;;;;;;;0.10;0.10;;;;;;;;;;5037601;28;20625;-74
2022/11/04 01:15:58;;;;;;;0.00;0.00;;;;;;;;;;5039190;28;20637;-73
2022/11/04 01:18:26;;;;;;;0.00;0.00;;;;;;;;;;5037626;28;20665;-74
2022/11/04 01:20:53;;;;;;;0.00;0.00;;;;;;;;;;5038271;28;20602;-78
2022/11/04 01:23:21;;;;;;;0.00;0.00;;;;;;;;;;5038801;28;20626;-76
2022/11/04 01:25:48;;;;;;;0.10;0.10;;;;;;;;;;5039224;28;20683;-77
2022/11/04 01:28:16;;;;;;;0.00;0.00;;;;;;;;;;5037717;28;20619;-75
2022/11/04 01:30:44;;;;;;;0.10;0.10;;;;;;;;;;5037200;28;20771;-76
2022/11/04 01:33:12;;;;;;;0.00;0.00;;;;;;;;;;5027887;28;20664;-78
2022/11/04 01:35:39;;;;;;;0.10;0.10;;;;;;;;;;5038713;28;20682;-75
2022/11/04 01:38:07;;;;;;;0.10;0.10;;;;;;;;;;5037300;28;20665;-75
2022/11/04 01:40:36;;;;;;;0.10;0.10;;;;;;;;;;5029031;28;20633;-74
2022/11/04 01:43:04;;;;;;;0.10;0.10;;;;;;;;;;5038476;28;20657;-74
2022/11/04 01:45:31;;;;;;;0.10;0.10;;;;;;;;;;5036291;28;20628;-75
2022/11/04 01:48:02;;;;;;;0.10;0.10;;;;;;;;;;5037184;28;20628;-76
2022/11/04 01:50:30;;;;;;;0.00;0.00;;;;;;;;;;5037105;28;20629;-76
2022/11/04 01:53:01;;;;;;;0.00;0.00;;;;;;;;;;5036784;28;20687;-76
2022/11/04 01:55:29;;;;;;;0.10;0.10;;;;;;;;;;5045885;28;20661;-75
2022/11/04 01:57:58;;;;;;;0.10;0.10;;;;;;;;;;5035996;28;20661;-76
2022/11/04 02:00:26;;;;;;;0.10;0.10;;;;;;;;;;5037203;28;20710;-76
2022/11/04 02:02:56;;;;;;;0.00;0.00;;;;;;;;;;5038333;28;20630;-76
2022/11/04 02:05:25;;;;;;;0.00;0.00;;;;;;;;;;5039104;28;20655;-74
2022/11/04 02:07:56;;;;;;;0.10;0.10;;;;;;;;;;5031575;28;20626;-75
2022/11/04 02:10:25;;;;;;;0.00;0.00;;;;;;;;;;5036265;28;20648;-74
2022/11/04 02:12:52;;;;;;;0.10;0.10;;;;;;;;;;5037045;28;20649;-74
2022/11/04 02:15:23;;;;;;;0.00;0.00;;;;;;;;;;5035969;28;20647;-75
2022/11/04 02:18:09;;;;;;;0.00;0.00;;;;;;;;;;5036813;28;20739;-75
2022/11/04 02:20:44;;;;;;;0.10;0.10;;;;;;;;;;5035819;28;21087;-75
2022/11/04 02:23:45;;;;;;;0.10;0.10;;;;;;;;;;5037773;28;20641;-75
2022/11/04 02:26:26;;;;;;;0.00;0.00;;;;;;;;;;4975222;28;20616;-75
2022/11/04 02:29:27;;;;;;;0.00;0.00;;;;;;;;;;4972542;28;20638;-77
2022/11/04 02:31:58;;;;;;;0.10;0.10;;;;;;;;;;4937130;28;20674;-74
2022/11/04 02:34:31;;;;;;;0.00;0.00;;;;;;;;;;4949256;28;20652;-76
2022/11/04 02:37:03;;;;;;;0.00;0.00;;;;;;;;;;4981853;28;20658;-75
2022/11/04 02:39:35;;;;;;;0.10;0.10;;;;;;;;;;5037364;28;20650;-75
2022/11/04 02:42:06;;;;;;;0.10;0.10;;;;;;;;;;5037455;28;20664;-75
2022/11/04 02:44:36;;;;;;;0.00;0.00;;;;;;;;;;5037232;28;20630;-74
2022/11/04 02:47:06;;;;;;;0.00;0.00;;;;;;;;;;5039570;28;20704;-76
2022/11/04 02:49:38;;;;;;;0.10;0.10;;;;;;;;;;5044658;28;20626;-75
2022/11/04 02:52:07;;;;;;;0.03;0.03;;;;;;;;;;5038427;28;20668;-75
2022/11/04 02:54:37;;;;;;;0.00;0.00;;;;;;;;;;5037968;28;20609;-74
2022/11/04 02:57:07;;;;;;;0.00;0.00;;;;;;;;;;5036631;28;20658;-75
2022/11/04 02:59:36;;;;;;;0.00;0.00;;;;;;;;;;5034150;28;20625;-75
2022/11/04 03:02:07;;;;;;;0.00;0.00;;;;;;;;;;5036540;28;20660;-75
2022/11/04 03:04:36;;;;;;;0.10;0.10;;;;;;;;;;5045188;28;20636;-77
2022/11/04 03:07:05;;;;;;;0.00;0.00;;;;;;;;;;5035775;28;21235;-77
2022/11/04 03:09:34;;;;;;;0.00;0.00;;;;;;;;;;5037179;28;20633;-77
2022/11/04 03:12:03;;;;;;;0.10;0.10;;;;;;;;;;5036061;28;20666;-76
2022/11/04 03:14:35;;;;;;;0.00;0.00;;;;;;;;;;5035806;28;20630;-77
2022/11/04 03:17:07;;;;;;;0.10;0.10;;;;;;;;;;5036874;28;20655;-77
2022/11/04 03:19:39;;;;;;;0.10;0.10;;;;;;;;;;5026453;28;20641;-77
2022/11/04 03:22:09;;;;;;;0.00;0.00;;;;;;;;;;5036593;28;20652;-77
2022/11/04 03:24:37;;;;;;;0.00;0.00;;;;;;;;;;5038850;28;20609;-77
2022/11/04 03:27:08;;;;;;;0.10;0.10;;;;;;;;;;5035004;28;20625;-77
2022/11/04 03:29:37;;;;;;;0.10;0.10;;;;;;;;;;5037456;28;20651;-79
2022/11/04 03:32:08;;;;;;;0.10;0.10;;;;;;;;;;5038020;28;20733;-77
2022/11/04 03:34:37;;;;;;;0.10;0.10;;;;;;;;;;5046637;28;20631;-76
2022/11/04 03:37:04;;;;;;;0.00;0.00;;;;;;;;;;5036996;28;20691;-74
2022/11/04 03:39:32;;;;;;;0.07;0.07;;;;;;;;;;5035443;28;21320;-76
2022/11/04 03:42:01;;;;;;;0.10;0.10;;;;;;;;;;5035759;28;20745;-77
2022/11/04 03:44:30;;;;;;;0.00;0.00;;;;;;;;;;5040207;28;20629;-79
2022/11/04 03:46:57;;;;;;;0.10;0.10;;;;;;;;;;5040735;28;20629;-79
2022/11/04 03:49:26;;;;;;;0.00;0.00;;;;;;;;;;5040336;28;20629;-79
2022/11/04 03:51:54;;;;;;;0.00;0.00;;;;;;;;;;5040316;28;20660;-79
2022/11/04 03:54:21;;;;;;;0.10;0.10;;;;;;;;;;5041669;28;20610;-79
2022/11/04 03:57:07;;;;;;;0.10;0.10;;;;;;;;;;5037514;28;20621;-80
2022/11/04 04:00:02;;;;;;;0.10;0.10;;;;;;;;;;5048588;28;20621;-79
2022/11/04 04:02:36;;;;;;;0.10;0.10;;;;;;;;;;5006421;28;20681;-79
2022/11/04 04:05:08;;;;;;;0.00;0.00;;;;;;;;;;5042374;28;20633;-80
2022/11/04 04:07:38;;;;;;;0.00;0.00;;;;;;;;;;5048855;28;20699;-80
2022/11/04 04:10:37;;;;;;;0.10;0.10;;;;;;;;;;5043466;28;20630;-80
2022/11/04 04:13:01;;;;;;;0.10;0.10;;;;;;;;;;5041704;28;20648;-80
2022/11/04 04:15:30;;;;;;;0.10;0.10;;;;;;;;;;5040263;28;20625;-80
2022/11/04 04:18:00;;;;;;;0.00;0.00;;;;;;;;;;5040119;28;20665;-79
2022/11/04 04:20:30;;;;;;;0.10;0.10;;;;;;;;;;5048980;28;20630;-80
2022/11/04 04:22:59;;;;;;;0.00;0.00;;;;;;;;;;5041774;28;20652;-80
2022/11/04 04:28:18;;;;;;;0.10;0.10;;;;;;;;;;5036016;28;20618;-79
2022/11/04 04:30:46;;;;;;;0.10;0.10;;;;;;;;;;5040725;28;20621;-78
2022/11/04 04:33:16;;;;;;;0.00;0.00;;;;;;;;;;5041978;28;21276;-76
2022/11/04 04:35:46;;;;;;;0.10;0.10;;;;;;;;;;5041722;28;20632;-77
2022/11/04 04:46:37;;;;;;;0.00;0.00;;;;;;;;;;5038872;28;20627;-76
2022/11/04 04:49:05;;;;;;;0.10;0.10;;;;;;;;;;5041500;28;20611;-76
2022/11/04 04:51:34;;;;;;;0.00;0.00;;;;;;;;;;5040183;28;20692;-76
2022/11/04 04:54:01;;;;;;;0.10;0.10;;;;;;;;;;5040062;28;20695;-75
2022/11/04 04:56:29;;;;;;;0.00;0.00;;;;;;;;;;5038244;28;20621;-74
2022/11/04 04:58:56;;;;;;;0.10;0.10;;;;;;;;;;5038798;28;20658;-74
2022/11/04 05:01:23;;;;;;;0.03;0.03;;;;;;;;;;5037257;28;20653;-73
2022/11/04 05:03:51;;;;;;;0.07;0.07;;;;;;;;;;5027871;28;21065;-72
2022/11/04 05:06:18;;;;;;;0.03;0.03;;;;;;;;;;5039435;28;20637;-74
2022/11/04 05:08:47;;;;;;;0.00;0.00;;;;;;;;;;5039200;28;21053;-75
2022/11/04 05:11:15;;;;;;;0.03;0.03;;;;;;;;;;5038771;28;20728;-76
2022/11/04 05:13:42;;;;;;;0.10;0.10;;;;;;;;;;5037726;28;20609;-76
2022/11/04 05:16:11;;;;;;;0.00;0.00;;;;;;;;;;5040447;28;20617;-75
2022/11/04 05:18:38;;;;;;;0.00;0.00;;;;;;;;;;5036095;28;20662;-75
2022/11/04 05:21:06;;;;;;;0.00;0.00;;;;;;;;;;5038967;28;20653;-76
2022/11/04 05:23:34;;;;;;;0.10;0.10;;;;;;;;;;5040056;28;20630;-76
2022/11/04 05:26:03;;;;;;;0.00;0.00;;;;;;;;;;5047111;28;20618;-76
2022/11/04 05:28:31;;;;;;;0.10;0.10;;;;;;;;;;5039192;28;20618;-76
2022/11/04 05:30:58;;;;;;;0.00;0.00;;;;;;;;;;5032835;28;20602;-75
2022/11/04 05:33:26;;;;;;;0.10;0.10;;;;;;;;;;5047119;28;20653;-75
2022/11/04 05:35:54;;;;;;;0.10;0.10;;;;;;;;;;5040047;28;20637;-76
2022/11/04 05:38:21;;;;;;;0.00;0.00;;;;;;;;;;5038346;28;21313;-75
2022/11/04 05:40:49;;;;;;;0.03;0.03;;;;;;;;;;5029174;28;20666;-76
2022/11/04 05:43:18;;;;;;;0.00;0.00;;;;;;;;;;5048932;28;20622;-75
2022/11/04 05:45:45;;;;;;;0.10;0.10;;;;;;;;;;5039558;28;20700;-76
2022/11/04 05:48:13;;;;;;;0.00;0.00;;;;;;;;;;5038573;28;20618;-76
2022/11/04 05:50:42;;;;;;;0.00;0.00;;;;;;;;;;5038223;28;20369;-76
2022/11/04 05:53:09;;;;;;;0.00;0.00;;;;;;;;;;5037278;28;20683;-76
2022/11/04 05:55:37;;;;;;;0.10;0.10;;;;;;;;;;5037676;28;20610;-76
2022/11/04 05:58:04;;;;;;;0.10;0.10;;;;;;;;;;5036960;28;20724;-76
2022/11/04 06:00:33;;;;;;;0.10;0.10;;;;;;;;;;5054712;28;20632;-76
2022/11/04 06:03:01;;;;;;;0.10;0.10;;;;;;;;;;5037492;28;20649;-76
2022/11/04 06:05:29;;;;;;;0.10;0.10;;;;;;;;;;5029258;28;20760;-75
2022/11/04 06:07:57;;;;;;;0.10;0.10;;;;;;;;;;5036758;28;20618;-75
2022/11/04 06:10:25;;;;;;;0.00;0.00;;;;;;;;;;5036706;28;20629;-75
2022/11/04 06:12:52;;;;;;;0.00;0.00;;;;;;;;;;5047270;28;20664;-75
2022/11/04 06:15:19;;;;;;;0.00;0.00;;;;;;;;;;5036438;28;20633;-75
2022/11/04 06:17:48;;;;;;;0.10;0.10;;;;;;;;;;5036480;28;20711;-75
2022/11/04 06:20:15;;;;;;;0.00;0.00;;;;;;;;;;5034948;28;20625;-75
2022/11/04 06:22:43;;;;;;;0.10;0.10;;;;;;;;;;5036150;28;20665;-75
2022/11/04 06:25:11;;;;;;;0.00;0.00;;;;;;;;;;5025584;28;20636;-74
2022/11/04 06:27:38;;;;;;;0.03;0.03;;;;;;;;;;5026128;28;20630;-75
2022/11/04 06:30:07;;;;;;;0.10;0.10;;;;;;;;;;5035874;28;20695;-75
2022/11/04 06:32:34;;;;;;;0.00;0.00;;;;;;;;;;5034803;28;21092;-74
2022/11/04 06:35:04;;;;;;;0.00;0.00;;;;;;;;;;5019440;28;20792;-75
2022/11/04 06:37:32;;;;;;;0.00;0.00;;;;;;;;;;5034967;28;20622;-75
2022/11/04 06:39:59;;;;;;;0.00;0.00;;;;;;;;;;5035071;28;20664;-75
2022/11/04 06:42:27;;;;;;;0.00;0.00;;;;;;;;;;5028895;28;20755;-75
2022/11/04 06:44:54;;;;;;;0.00;0.00;;;;;;;;;;5033765;28;20734;-76
2022/11/04 06:47:22;;;;;;;0.10;0.10;;;;;;;;;;5033472;28;20239;-75
2022/11/04 06:49:49;;;;;;;0.00;0.00;;;;;;;;;;5034697;28;20669;-75
2022/11/04 06:52:19;;;;;;;0.00;0.00;;;;;;;;;;5035733;28;21220;-75
2022/11/04 06:54:47;;;;;;;0.00;0.00;;;;;;;;;;5045041;28;20238;-75
2022/11/04 06:57:14;;;;;;;0.10;0.10;;;;;;;;;;5037693;28;20618;-75
2022/11/04 06:59:44;;;;;;;0.10;0.10;;;;;;;;;;5034885;28;20669;-75
2022/11/04 07:02:12;;;;;;;0.10;0.10;;;;;;;;;;5045343;28;20657;-75
2022/11/04 07:04:40;;;;;;;0.00;0.00;;;;;;;;;;5035093;28;20626;-75
2022/11/04 07:07:07;;;;;;;0.10;0.10;;;;;;;;;;5037399;28;20626;-76
2022/11/04 07:09:36;;;;;;;0.00;0.00;;;;;;;;;;5034275;28;20629;-75
2022/11/04 07:12:04;;;;;;;0.10;0.10;;;;;;;;;;5036037;28;21225;-75
2022/11/04 07:14:31;;;;;;;0.10;0.10;;;;;;;;;;5033304;28;20634;-75
2022/11/04 07:16:59;;;;;;;0.00;0.00;;;;;;;;;;5038933;28;20669;-75
2022/11/04 07:19:26;;;;;;;0.00;0.00;;;;;;;;;;5041138;28;20656;-75
2022/11/04 07:21:53;;;;;;;0.00;0.00;;;;;;;;;;5033112;28;20676;-75
2022/11/04 07:24:21;;;;;;;0.10;0.10;;;;;;;;;;5041246;28;20625;-75
2022/11/04 07:26:50;;;;;;;0.00;0.00;;;;;;;;;;5038233;28;21202;-75
2022/11/04 07:29:18;;;;;;;0.10;0.10;;;;;;;;;;5032542;28;20191;-75
2022/11/04 07:31:45;;;;;;;0.10;0.10;;;;;;;;;;5039640;28;20653;-74
2022/11/04 07:34:13;;;;;;;0.10;0.10;;;;;;;;;;5041080;28;21205;-75
2022/11/04 07:36:40;;;;;;;0.10;0.10;;;;;;;;;;5030528;28;20630;-74
2022/11/04 07:39:08;;;;;;;0.10;0.10;;;;;;;;;;5047545;28;20688;-75
2022/11/04 07:41:35;;;;;;;0.00;0.00;;;;;;;;;;5048874;28;20665;-74
2022/11/04 07:44:04;;;;;;;0.00;0.00;;;;;;;;;;5041153;28;20218;-75
2022/11/04 07:46:32;;;;;;;0.00;0.00;;;;;;;;;;5039415;28;20895;-75
2022/11/04 07:49:00;;;;;;;0.00;0.00;;;;;;;;;;5040347;28;20679;-78
2022/11/04 07:51:27;;;;;;;0.07;0.07;;;;;;;;;;5039120;28;20666;-78
2022/11/04 07:53:56;;;;;;;0.00;0.00;;;;;;;;;;5039254;28;20203;-75
2022/11/04 07:56:24;;;;;;;0.00;0.00;;;;;;;;;;5039787;28;20242;-78
2022/11/04 07:58:51;;;;;;;0.07;0.07;;;;;;;;;;5055359;28;20237;-75
2022/11/04 08:01:22;;;;;;;0.00;0.00;;;;;;;;;;5039928;28;20226;-75
2022/11/04 08:03:49;;;;;;;0.10;0.10;;;;;;;;;;5032895;28;20207;-75
2022/11/04 08:06:18;;;;;;;0.00;0.00;;;;;;;;;;5039345;28;20630;-75
2022/11/04 08:08:46;;;;;;;0.00;0.00;;;;;;;;;;5039422;28;20191;-75
2022/11/04 08:11:15;;;;;;;0.00;0.00;;;;;;;;;;5039575;28;20247;-75
2022/11/04 08:13:42;;;;;;;0.00;0.00;;;;;;;;;;5038674;28;20261;-75
2022/11/04 08:16:12;;;;;;;0.10;0.10;;;;;;;;;;5040986;28;20610;-75
2022/11/04 08:18:41;;;;;;;0.00;0.00;;;;;;;;;;5039079;28;20219;-75
2022/11/04 08:21:09;;;;;;;0.00;0.00;;;;;;;;;;5039785;28;20219;-75
2022/11/04 08:23:37;;;;;;;0.10;0.10;;;;;;;;;;5039271;28;20221;-76
2022/11/04 08:26:08;;;;;;;0.00;0.00;;;;;;;;;;5047109;28;20341;-75
2022/11/04 08:28:35;;;;;;;0.10;0.10;;;;;;;;;;5039430;28;20199;-75
2022/11/04 08:31:04;;;;;;;0.00;0.00;;;;;;;;;;5038036;28;20632;-75
2022/11/04 08:33:33;;;;;;;0.10;0.10;;;;;;;;;;5048314;28;20207;-75
2022/11/04 08:36:03;;;;;;;0.10;0.10;;;;;;;;;;5039291;28;20230;-75
2022/11/04 08:38:30;;;;;;;0.10;0.10;;;;;;;;;;5032939;28;20289;-74
2022/11/04 08:40:58;;;;;;;0.00;0.00;;;;;;;;;;5040729;28;20696;-74
2022/11/04 08:43:26;;;;;;;0.00;0.00;;;;;;;;;;5039370;28;20211;-76
2022/11/04 08:45:53;;;;;;;0.00;0.00;;;;;;;;;;5040104;28;20249;-75
2022/11/04 08:48:21;;;;;;;0.00;0.00;;;;;;;;;;5038520;28;20218;-75
2022/11/04 08:50:49;;;;;;;0.00;0.00;;;;;;;;;;5039177;28;20277;-74
2022/11/04 08:53:18;;;;;;;0.07;0.07;;;;;;;;;;5038943;28;20200;-75
2022/11/04 08:55:46;;;;;;;0.10;0.10;;;;;;;;;;5045977;28;20207;-74
2022/11/04 08:58:13;;;;;;;0.00;0.00;;;;;;;;;;5039080;28;20221;-75
2022/11/04 09:00:41;;;;;;;0.00;0.00;;;;;;;;;;5039060;28;20229;-75
2022/11/04 09:03:08;;;;;;;0.00;0.00;;;;;;;;;;5037845;28;20281;-74
2022/11/04 09:05:42;;;;;;;0.00;0.00;;;;;;;;;;5038035;28;20204;-75
2022/11/04 09:08:09;;;;;;;0.10;0.10;;;;;;;;;;5040150;28;20225;-74
2022/11/04 09:10:41;;;;;;;0.00;0.00;;;;;;;;;;5038127;28;20222;-75
2022/11/04 09:13:09;;;;;;;0.10;0.10;;;;;;;;;;5036522;28;20716;-75
2022/11/04 09:15:36;;;;;;;0.00;0.00;;;;;;;;;;5028110;28;20196;-75
2022/11/04 09:18:04;;;;;;;0.00;0.00;;;;;;;;;;5038656;28;20207;-75
2022/11/04 09:20:32;;;;;;;0.10;0.10;;;;;;;;;;5037767;28;20223;-74
2022/11/04 09:22:59;;;;;;;0.00;0.00;;;;;;;;;;5038155;28;20277;-74
2022/11/04 09:25:27;;;;;;;0.00;0.00;;;;;;;;;;5038185;28;20207;-75
2022/11/04 09:27:56;;;;;;;0.10;0.10;;;;;;;;;;5038662;28;20258;-75
2022/11/04 09:30:23;;;;;;;0.00;0.00;;;;;;;;;;5031861;28;20199;-75
2022/11/04 09:32:51;;;;;;;0.10;0.10;;;;;;;;;;5033608;28;20309;-75
2022/11/04 09:35:18;;;;;;;0.00;0.00;;;;;;;;;;5039003;28;20209;-75
2022/11/04 09:37:46;;;;;;;0.10;0.10;;;;;;;;;;5035234;28;20253;-74
2022/11/04 09:40:16;;;;;;;0.10;0.10;;;;;;;;;;5026442;28;20716;-75
2022/11/04 09:42:49;;;;;;;0.00;0.00;;;;;;;;;;5038355;28;20211;-75
2022/11/04 09:45:19;;;;;;;0.00;0.00;;;;;;;;;;5037317;28;20290;-75
2022/11/04 09:47:48;;;;;;;0.00;0.00;;;;;;;;;;5037619;28;20204;-75
2022/11/04 09:50:19;;;;;;;0.10;0.10;;;;;;;;;;5032685;28;20242;-75
2022/11/04 09:52:49;;;;;;;0.10;0.10;;;;;;;;;;5050735;28;20233;-75
2022/11/04 09:55:19;;;;;;;0.07;0.07;;;;;;;;;;5029528;28;20287;-75
2022/11/04 09:57:47;;;;;;;0.10;0.10;;;;;;;;;;5037020;28;20203;-75
2022/11/04 10:00:16;;;;;;;0.03;0.03;;;;;;;;;;5030965;28;20223;-75
2022/11/04 10:02:52;;;;;;;0.10;0.10;;;;;;;;;;5038234;28;20262;-75
2022/11/04 10:05:25;;;;;;;0.10;0.10;;;;;;;;;;5046657;28;20230;-75
2022/11/04 10:08:11;;;;;;;0.10;0.10;;;;;;;;;;5036175;28;20291;-74
2022/11/04 10:10:44;;;;;;;0.00;0.00;;;;;;;;;;5035056;28;20209;-74
2022/11/04 10:13:21;;;;;;;0.00;0.00;;;;;;;;;;5035398;28;20191;-75
2022/11/04 10:15:57;;;;;;;0.07;0.07;;;;;;;;;;5029061;28;20210;-75
2022/11/04 10:18:36;;;;;;;0.10;0.10;;;;;;;;;;5036916;28;20243;-75
2022/11/04 10:21:06;;;;;;;0.00;0.00;;;;;;;;;;5036471;28;20224;-75
2022/11/04 10:23:35;;;;;;;0.00;0.00;;;;;;;;;;5038064;28;20195;-75
2022/11/04 10:26:06;;;;;;;0.10;0.10;;;;;;;;;;5035480;28;20261;-75
2022/11/04 10:28:37;;;;;;;0.10;0.10;;;;;;;;;;5036707;28;20203;-75
2022/11/04 10:31:05;;;;;;;0.10;0.10;;;;;;;;;;5037567;28;20233;-75
2022/11/04 10:33:36;;;;;;;0.00;0.00;;;;;;;;;;5036187;28;20199;-75
2022/11/04 10:36:06;;;;;;;0.00;0.00;;;;;;;;;;5038243;28;20227;-74
2022/11/04 10:38:37;;;;;;;0.00;0.00;;;;;;;;;;5047682;28;20234;-75
2022/11/04 10:41:13;;;;;;;0.10;0.10;;;;;;;;;;5036302;28;20365;-75
2022/11/04 10:43:41;;;;;;;0.10;0.10;;;;;;;;;;5036759;28;20332;-77
2022/11/04 10:46:21;;;;;;;0.10;0.10;;;;;;;;;;5037003;28;20202;-77
2022/11/04 10:48:52;;;;;;;0.00;0.00;;;;;;;;;;5037897;28;20196;-75
2022/11/04 10:51:21;;;;;;;0.10;0.10;;;;;;;;;;5037052;28;20281;-75
2022/11/04 10:53:49;;;;;;;0.10;0.10;;;;;;;;;;5037775;28;20225;-75
2022/11/04 10:56:20;;;;;;;0.00;0.00;;;;;;;;;;5037693;28;20229;-75
2022/11/04 10:58:48;;;;;;;0.00;0.00;;;;;;;;;;5037472;28;20258;-75
2022/11/04 11:01:27;;;;;;;0.10;0.10;;;;;;;;;;5038007;28;20218;-74
2022/11/04 11:03:56;;;;;;;0.00;0.00;;;;;;;;;;5049115;28;20207;-75
2022/11/04 11:06:28;;;;;;;0.03;0.03;;;;;;;;;;5035975;28;20243;-75
2022/11/04 11:08:59;;;;;;;0.10;0.10;;;;;;;;;;5038386;28;20199;-75
2022/11/04 11:11:40;;;;;;;0.00;0.00;;;;;;;;;;5036412;28;20222;-75
2022/11/04 11:14:16;;;;;;;0.00;0.00;;;;;;;;;;5035971;28;20218;-74
2022/11/04 11:16:45;;;;;;;0.00;0.00;;;;;;;;;;5044687;28;20218;-74
2022/11/04 11:19:18;;;;;;;0.00;0.00;;;;;;;;;;5032492;28;20668;-73
2022/11/04 11:21:48;;;;;;;0.10;0.10;;;;;;;;;;5036065;28;20383;-74
2022/11/04 11:24:17;;;;;;;0.00;0.00;;;;;;;;;;5035651;28;20227;-74
2022/11/04 11:26:48;;;;;;;0.00;0.00;;;;;;;;;;5037271;28;20203;-74
2022/11/04 11:29:20;;;;;;;0.00;0.00;;;;;;;;;;5036821;28;20278;-74
2022/11/04 11:31:48;;;;;;;0.00;0.00;;;;;;;;;;5027099;28;20235;-74
2022/11/04 11:34:17;;;;;;;0.10;0.10;;;;;;;;;;5039107;28;20195;-75
2022/11/04 11:36:47;;;;;;;0.00;0.00;;;;;;;;;;5034688;28;20204;-77
2022/11/04 11:39:16;;;;;;;0.00;0.00;;;;;;;;;;5036676;28;20199;-74
2022/11/04 11:41:51;;;;;;;0.10;0.10;;;;;;;;;;5035619;28;20250;-74
2022/11/04 11:44:20;;;;;;;0.07;0.07;;;;;;;;;;5039503;28;20223;-73
2022/11/04 11:46:53;;;;;;;0.00;0.00;;;;;;;;;;5035738;28;20218;-73
2022/11/04 11:49:29;;;;;;;0.00;0.00;;;;;;;;;;5045990;28;20214;-77
2022/11/04 11:52:18;;;;;;;0.10;0.10;;;;;;;;;;5044788;28;20269;-73
2022/11/04 11:54:48;;;;;;;0.00;0.00;;;;;;;;;;5036178;28;20208;-75
2022/11/04 11:57:24;;;;;;;0.10;0.10;;;;;;;;;;5038076;28;20211;-75
2022/11/04 11:59:53;;;;;;;0.00;0.00;;;;;;;;;;5045682;28;20306;-75
2022/11/04 12:02:25;;;;;;;0.00;0.00;;;;;;;;;;5036510;28;20226;-76
2022/11/04 12:04:55;;;;;;;0.10;0.10;;;;;;;;;;5039348;28;20681;-75
2022/11/04 12:07:30;;;;;;;0.10;0.10;;;;;;;;;;5040421;28;20203;-75
2022/11/04 12:10:03;;;;;;;0.10;0.10;;;;;;;;;;5039949;28;20195;-75
2022/11/04 12:12:36;;;;;;;0.00;0.00;;;;;;;;;;5040026;28;20230;-74
2022/11/04 12:15:12;;;;;;;0.10;0.10;;;;;;;;;;5047232;28;20196;-75
2022/11/04 12:17:47;;;;;;;0.00;0.00;;;;;;;;;;5037641;28;20287;-75
2022/11/04 12:20:25;;;;;;;0.00;0.00;;;;;;;;;;5041601;28;20211;-76
2022/11/04 12:22:59;;;;;;;0.03;0.03;;;;;;;;;;5032299;28;20233;-74
2022/11/04 12:25:32;;;;;;;0.03;0.03;;;;;;;;;;5028328;28;20204;-76
2022/11/04 12:28:05;;;;;;;0.00;0.00;;;;;;;;;;5038485;28;20199;-75
2022/11/04 12:30:35;;;;;;;0.00;0.00;;;;;;;;;;5040511;28;20195;-75
2022/11/04 12:33:11;;;;;;;0.10;0.10;;;;;;;;;;5040689;28;20254;-76
2022/11/04 12:35:43;;;;;;;0.10;0.10;;;;;;;;;;5039029;28;20206;-76
2022/11/04 12:38:18;;;;;;;0.00;0.00;;;;;;;;;;5038915;28;20306;-77
2022/11/04 12:40:49;;;;;;;0.00;0.00;;;;;;;;;;5039466;28;20227;-78
2022/11/04 12:43:21;;;;;;;0.00;0.00;;;;;;;;;;5039493;28;20757;-78
2022/11/04 12:45:57;;;;;;;0.00;0.00;;;;;;;;;;5040637;28;20210;-78
2022/11/04 12:48:37;;;;;;;0.00;0.00;;;;;;;;;;5048945;28;20298;-77
2022/11/04 12:51:09;;;;;;;0.00;0.00;;;;;;;;;;5040199;28;20223;-75
2022/11/04 12:53:55;;;;;;;0.00;0.00;;;;;;;;;;5046281;28;20821;-76
2022/11/04 12:56:26;;;;;;;0.10;0.10;;;;;;;;;;5037993;28;20231;-77
2022/11/04 12:59:05;;;;;;;0.00;0.00;;;;;;;;;;5030356;28;20657;-77
2022/11/04 13:01:35;;;;;;;0.00;0.00;;;;;;;;;;5044260;28;20301;-78
2022/11/04 13:04:05;;;;;;;0.00;0.00;;;;;;;;;;5050458;28;20199;-78
2022/11/04 13:06:35;;;;;;;0.00;0.00;;;;;;;;;;5026530;28;20203;-78
2022/11/04 13:09:06;;;;;;;0.00;0.00;;;;;;;;;;5046754;28;20207;-78
2022/11/04 13:11:36;;;;;;;0.07;0.07;;;;;;;;;;5029818;28;20310;-77
2022/11/04 13:14:05;;;;;;;0.10;0.10;;;;;;;;;;5050132;28;20214;-76
2022/11/04 13:16:34;;;;;;;0.00;0.00;;;;;;;;;;5038766;28;20195;-78
2022/11/04 13:19:02;;;;;;;0.00;0.00;;;;;;;;;;5037467;28;20195;-78
2022/11/04 13:21:33;;;;;;;0.03;0.03;;;;;;;;;;5038767;28;20231;-78
2022/11/04 13:24:03;;;;;;;0.00;0.00;;;;;;;;;;5035420;28;20203;-77
2022/11/04 13:26:32;;;;;;;0.10;0.10;;;;;;;;;;5034346;28;20203;-78
2022/11/04 13:29:02;;;;;;;0.00;0.00;;;;;;;;;;5038478;28;20210;-76
2022/11/04 13:31:34;;;;;;;0.00;0.00;;;;;;;;;;5044694;28;20250;-76
2022/11/04 13:34:07;;;;;;;0.00;0.00;;;;;;;;;;5037849;28;20199;-76
2022/11/04 13:36:39;;;;;;;0.00;0.00;;;;;;;;;;5045577;28;20235;-76
2022/11/04 13:39:08;;;;;;;0.00;0.00;;;;;;;;;;5043136;28;20283;-76
2022/11/04 13:42:06;;;;;;;0.10;0.10;;;;;;;;;;5033937;28;20234;-75
2022/11/04 13:44:38;;;;;;;0.00;0.00;;;;;;;;;;4946684;28;20210;-76
2022/11/04 13:47:07;;;;;;;0.10;0.10;;;;;;;;;;5012970;28;20199;-75
2022/11/04 13:49:37;;;;;;;0.10;0.10;;;;;;;;;;5033474;28;20199;-78
2022/11/04 13:52:09;;;;;;;0.10;0.10;;;;;;;;;;5038179;28;20230;-78
2022/11/04 13:54:38;;;;;;;0.13;0.13;;;;;;;;;;5037102;28;20207;-78
2022/11/04 13:57:11;;;;;;;0.00;0.00;;;;;;;;;;5036137;28;20227;-78
2022/11/04 13:59:41;;;;;;;0.00;0.00;;;;;;;;;;5042255;28;20199;-79
2022/11/04 14:02:38;;;;;;;0.00;0.00;;;;;;;;;;5036410;28;20223;-78
2022/11/04 14:05:25;;;;;;;0.00;0.00;;;;;;;;;;5037505;28;20322;-78
2022/11/04 14:08:09;;;;;;;0.00;0.00;;;;;;;;;;5034452;28;20203;-78
2022/11/04 14:10:38;;;;;;;0.10;0.10;;;;;;;;;;5047798;28;20207;-78
2022/11/04 14:13:27;;;;;;;0.00;0.00;;;;;;;;;;5041995;28;20607;-78
2022/11/04 14:16:03;;;;;;;0.10;0.10;;;;;;;;;;4993865;28;20207;-78
2022/11/04 14:18:32;;;;;;;0.00;0.00;;;;;;;;;;5047119;28;20209;-77
2022/11/04 14:21:04;;;;;;;0.10;0.10;;;;;;;;;;5038423;28;20231;-78
2022/11/04 14:23:32;;;;;;;0.10;0.10;;;12.10;99.90;;;;;;5049083;28;20261;-78
2022/11/04 14:26:02;;;;;;;0.07;0.07;;;12.00;99.90;;;;;;5024795;28;20208;-79
2022/11/04 14:28:31;;;;;;;0.00;0.00;;;11.70;99.90;;;;;;5042664;28;20199;-78
2022/11/04 14:31:01;;;;;;;0.00;0.00;;;11.90;99.90;;;;;;5035266;28;20195;-78
2022/11/04 14:33:50;;;;;;;0.00;0.00;;;11.60;99.90;;;;;;5034417;28;20199;-78
2022/11/04 14:36:30;;;;;;;0.00;0.00;;;11.70;99.90;;;;;;5035335;28;20214;-78
2022/11/04 14:39:01;;;;;;;0.00;0.00;;;11.80;99.90;;;;;;5035450;28;20195;-78
2022/11/04 14:41:55;;;;;;;0.00;0.00;;;11.80;99.90;;;;;;5037067;28;20700;-77
2022/11/04 14:44:31;;;;;;;0.00;0.00;;;11.80;99.90;;;;;;5035789;28;20211;-78
2022/11/04 14:47:06;;;;;;;0.00;0.00;;;11.70;99.90;;;;;;5035504;28;20206;-77
2022/11/04 14:49:42;;;;;;;0.03;0.03;;;11.60;99.90;;;;;;5045321;28;20207;-78
2022/11/04 14:52:28;;;;;;;0.00;0.00;;;11.60;99.90;;;;;;5037698;28;20326;-77
2022/11/04 14:55:02;;;;;;;0.10;0.10;;;11.70;99.90;;;;;;5048023;28;20207;-78
2022/11/04 14:57:35;;;;;;;0.00;0.00;;;11.60;99.90;;;;;;5043858;28;20203;-77
2022/11/04 15:00:20;;;;;;;0.00;0.00;;;11.70;99.90;;;;;;5024109;28;20204;-77
2022/11/04 15:02:49;;;;;;;0.00;0.00;;;11.70;99.90;;;;;;5043303;28;20227;-78
2022/11/04 15:05:25;;;;;;;0.00;0.00;;;11.60;99.90;;;;;;5027708;28;20226;-78
2022/11/04 15:07:52;;;;;;;0.00;0.00;;;;;;;;;;5036656;28;20199;-78
2022/11/04 15:10:23;;;;;;;0.10;0.10;;;11.60;99.90;;;;;;5035755;28;20299;-77
2022/11/04 15:12:50;;;;;;;0.00;0.00;;;11.30;99.90;;;;;;5036241;28;20223;-76
2022/11/04 15:15:36;;;;;;;0.00;0.00;;;11.50;99.90;;;;;;5035461;28;20230;-76
2022/11/04 15:18:14;;;;;;;0.00;0.00;;;11.50;99.90;;;;;;5037536;28;20287;-77
2022/11/04 15:20:46;;;;;;;0.00;0.00;;;11.60;99.90;;;;;;5034803;28;20222;-77